Latest Weather Observations for West Wyalong

IDN60801

Issued at 3:43 pm EDT Saturday 29 February 2020 (issued every 10 minutes, with the page automatically refreshed every 10 minutes)

About weather observations | Map of weather stations | Latest weather observations for NSW | Other Formats
Station Details ID: 050017 Name: WEST WYALONG AIRPORT AWS Lat: -33.94 Lon: 147.20 Height: 257.0 m
Data from the previous 72 hours. | See also: Recent months at West Wyalong
Date/Time
EDT
Temp
°C
App
Temp
°C
Dew
Point
°C
Rel
Hum
%
Delta-T
°C
Wind Press
QNH
hPa
Press
MSL
hPa
Rain since
9am
mm
Dir  Spd
km/h
Gust
km/h
Spd
kts
Gust
kts
29/03:30pm 28.4 25.0 5.9 24 11.9 NNE 13 24 7 13 1013.4 1012.0 0.0
29/03:00pm 28.3 25.1 7.0 26 11.5 WNW 13 26 7 14 1014.1 1012.7 0.0
29/02:30pm 27.7 25.3 7.0 27 11.1 WNW 9 15 5 8 1014.5 1013.1 0.0
29/02:00pm 27.3 24.4 6.7 27 11.0 NW 11 17 6 9 1014.5 1013.1 0.0
29/01:30pm 27.4 25.6 7.8 29 10.7 NNW 7 19 4 10 1014.8 1013.4 0.0
29/01:00pm 26.6 23.2 7.6 30 10.2 WNW 15 20 8 11 1015.2 1013.8 0.0
29/12:30pm 26.1 23.7 8.6 33 9.6 NW 11 19 6 10 1015.6 1014.2 0.0
29/12:00pm 25.3 23.4 9.2 36 8.9 NNW 9 20 5 11 1016.0 1014.6 0.0
29/11:30am 24.6 22.8 9.3 38 8.4 NW 9 19 5 10 1016.2 1014.8 0.0
29/11:00am 23.4 21.2 9.4 41 7.7 NNW 11 15 6 8 1016.6 1015.3 0.0
29/10:30am 22.8 21.3 10.6 46 6.8 NNE 9 15 5 8 1016.6 1015.3 0.0
29/10:00am 21.3 19.1 9.5 47 6.4 N 11 15 6 8 1016.5 1015.1 0.0
29/09:30am 20.9 20.9 11.0 53 5.5 E 2 9 1 5 1016.5 1015.1 0.0
29/09:00am 19.1 18.6 10.6 58 4.6 ENE 4 7 2 4 1016.5 1015.1 0.0
29/08:30am 17.8 17.7 10.9 64 3.8 SE 2 7 1 4 1016.3 1014.9 0.0
29/08:00am 16.2 15.3 10.7 70 3.0 SW 6 7 3 4 1016.0 1014.6 0.0
29/07:30am 15.1 13.9 10.3 73 2.5 SW 7 9 4 5 1016.0 1014.6 0.0
29/07:00am 14.2 12.9 9.2 72 2.6 SW 6 7 3 4 1015.5 1014.1 0.0
29/06:30am 14.5 14.3 9.1 70 2.8 CALM 0 0 0 0 1015.2 1013.8 0.0
29/06:00am 14.8 13.7 8.5 66 3.2 S 4 6 2 3 1015.1 1013.7 0.0
29/05:30am 15.4 13.8 8.6 64 3.5 S 7 7 4 4 1014.9 1013.5 0.0
29/05:00am 16.1 14.4 8.3 60 4.0 S 7 11 4 6 1014.8 1013.4 0.0
29/04:30am 17.2 15.1 8.1 55 4.7 S 9 11 5 6 1014.7 1013.3 0.0
29/04:00am 17.2 15.4 7.8 54 4.8 S 7 9 4 5 1014.7 1013.3 0.0
29/03:30am 17.5 14.9 7.8 53 5.0 SSE 11 13 6 7 1014.8 1013.4 0.0
29/03:00am 17.3 15.1 7.9 54 4.8 SSE 9 11 5 6 1014.9 1013.5 0.0
29/02:30am 17.7 16.0 7.7 52 5.1 S 6 9 3 5 1014.8 1013.4 0.0
29/02:00am 18.0 16.1 7.7 51 5.3 SSW 7 9 4 5 1015.0 1013.6 0.0
29/01:30am 17.9 16.0 7.6 51 5.3 SSW 7 9 4 5 1014.9 1013.5 0.0
29/01:00am 18.3 16.0 7.4 49 5.6 SW 9 11 5 6 1014.8 1013.4 0.0
29/12:30am 18.5 16.2 7.3 48 5.7 SW 9 11 5 6 1014.9 1013.5 0.0
29/12:00am 18.9 17.0 7.4 47 5.9 WSW 7 9 4 5 1014.9 1013.5 0.0
 
Date/Time
EDT
Temp
°C
App
Temp
°C
Dew
Point
°C
Rel
Hum
%
Delta-T
°C
Wind Press
QNH
hPa
Press
MSL
hPa
Rain since
9am
mm
Dir  Spd
km/h
Gust
km/h
Spd
kts
Gust
kts
28/11:30pm 19.0 17.1 7.4 47 6.0 SW 7 11 4 6 1014.8 1013.4 0.0
28/11:00pm 19.4 17.1 7.5 46 6.1 SW 9 11 5 6 1014.8 1013.4 0.0
28/10:30pm 19.6 17.3 7.4 45 6.3 SSW 9 11 5 6 1014.7 1013.3 0.0
28/10:00pm 20.5 18.2 7.5 43 6.8 SSW 9 13 5 7 1014.5 1013.1 0.0
28/09:30pm 21.4 19.0 6.9 39 7.5 SSW 9 11 5 6 1014.3 1012.9 0.0
28/09:00pm 22.5 19.6 6.7 36 8.2 S 11 15 6 8 1014.0 1012.6 0.0
28/08:30pm 23.2 19.9 6.5 34 8.7 SSW 13 17 7 9 1013.5 1012.1 0.0
28/08:00pm 24.0 19.8 5.8 31 9.4 SSW 17 24 9 13 1013.1 1011.6 0.0
28/07:30pm 25.0 20.5 6.2 30 9.8 S 19 24 10 13 1012.5 1011.1 0.0
28/07:00pm 25.9 21.3 6.5 29 10.2 S 20 28 11 15 1012.2 1010.8 0.0
28/06:30pm 26.3 21.7 5.8 27 10.7 SSW 19 26 10 14 1012.0 1010.6 0.0
28/06:00pm 26.2 21.6 5.7 27 10.7 SSW 19 24 10 13 1012.0 1010.6 0.0
28/05:30pm 26.7 22.2 6.2 27 10.8 SW 19 28 10 15 1011.8 1010.4 0.0
28/05:00pm 26.8 22.2 5.7 26 11.0 SSW 19 26 10 14 1011.8 1010.4 0.0
28/04:30pm 26.9 22.3 5.8 26 11.1 S 19 28 10 15 1011.9 1010.5 0.0
28/04:00pm 26.8 22.3 6.2 27 10.9 SW 19 30 10 16 1012.1 1010.7 0.0
28/03:30pm 26.8 22.3 6.8 28 10.7 SSW 20 32 11 17 1012.3 1010.9 0.0
28/03:19pm 26.8 22.1 6.2 27 10.9 SW 20 50 11 27 1012.4 1011.0 0.0
28/03:00pm 26.0 21.5 6.1 28 10.4 SW 19 30 10 16 1012.6 1011.2 0.0
28/02:30pm 26.0 21.3 6.1 28 10.4 SSW 20 32 11 17 1013.1 1011.6 0.0
28/02:00pm 25.6 21.1 6.8 30 10.0 SW 20 30 11 16 1013.4 1012.0 0.0
28/01:30pm 24.2 20.2 6.5 32 9.2 SSW 17 24 9 13 1013.6 1012.2 0.0
28/01:00pm 23.4 19.2 5.8 32 9.0 SSW 17 30 9 16 1014.1 1012.7 0.0
28/12:30pm 23.4 18.8 6.7 34 8.7 SSW 20 32 11 17 1014.5 1013.1 0.0
28/12:00pm 22.3 17.3 6.5 36 8.2 SSW 22 33 12 18 1014.9 1013.5 0.0
28/11:30am 21.1 16.9 5.9 37 7.7 SSW 17 32 9 17 1015.2 1013.8 0.0
28/11:00am 20.9 16.5 6.4 39 7.4 SSW 19 28 10 15 1015.2 1013.8 0.0
28/10:30am 20.1 15.6 6.8 42 6.8 SSW 20 32 11 17 1015.1 1013.7 0.0
28/10:00am 19.4 14.5 6.8 44 6.4 S 22 30 12 16 1014.7 1013.3 0.0
28/09:30am 18.3 13.3 6.5 46 5.9 S 22 30 12 16 1014.5 1013.1 0.0
28/09:00am 17.5 13.1 6.4 48 5.5 SSW 19 26 10 14 1014.1 1012.7 0.0
28/08:30am 15.6 10.9 5.2 50 5.0 SW 19 22 10 12 1014.1 1012.7 0.0
28/08:00am 14.5 10.0 4.2 50 4.8 SW 17 20 9 11 1014.0 1012.6 0.0
28/07:30am 13.7 9.9 4.0 52 4.5 WSW 13 17 7 9 1013.5 1012.1 0.0
28/07:00am 12.8 8.9 3.2 52 4.3 WSW 13 15 7 8 1013.1 1011.6 0.0
28/06:30am 11.9 8.7 2.9 54 4.0 WSW 9 11 5 6 1012.7 1011.3 0.0
28/06:00am 12.7 9.4 2.6 50 4.5 WSW 9 11 5 6 1012.2 1010.8 0.0
28/05:30am 13.7 10.0 2.3 46 5.1 WSW 11 11 6 6 1011.9 1010.5 0.0
28/05:00am 13.8 10.0 1.8 44 5.3 WSW 11 13 6 7 1011.9 1010.5 0.0
28/04:30am 14.8 10.5 1.3 40 5.9 WSW 13 17 7 9 1012.1 1010.7 0.0
28/04:00am 15.7 11.0 1.1 37 6.4 WSW 15 20 8 11 1012.1 1010.7 0.0
28/03:30am 13.7 10.3 1.7 44 5.3 WSW 9 11 5 6 1012.0 1010.6 0.0
28/03:00am 13.3 10.3 1.9 46 5.0 W 7 9 4 5 1011.9 1010.5 0.0
28/02:30am 12.8 9.5 2.4 49 4.6 WSW 9 11 5 6 1012.1 1010.7 0.0
28/02:00am 14.9 11.0 1.1 39 6.1 W 11 13 6 7 1012.0 1010.6 0.0
28/01:30am 13.7 10.6 1.4 43 5.4 W 7 9 4 5 1011.8 1010.4 0.0
28/01:00am 14.3 11.5 1.9 43 5.5 WSW 6 7 3 4 1011.9 1010.5 0.0
28/12:30am 15.1 12.1 2.0 41 5.9 WSW 7 9 4 5 1012.1 1010.7 0.0
28/12:00am 16.4 12.8 0.9 35 6.9 WSW 9 11 5 6 1012.2 1010.8 0.0
 
Date/Time
EDT
Temp
°C
App
Temp
°C
Dew
Point
°C
Rel
Hum
%
Delta-T
°C
Wind Press
QNH
hPa
Press
MSL
hPa
Rain since
9am
mm
Dir  Spd
km/h
Gust
km/h
Spd
kts
Gust
kts
27/11:30pm 16.7 13.4 -0.1 32 7.3 W 7 9 4 5 1012.4 1011.0 0.0
27/11:00pm 17.0 13.3 0.2 32 7.4 W 9 11 5 6 1012.3 1010.9 0.0
27/10:30pm 18.0 14.3 0.2 30 7.9 W 9 11 5 6 1012.1 1010.7 0.0
27/10:00pm 19.3 15.6 -0.1 27 8.6 WSW 9 13 5 7 1011.9 1010.5 0.0
27/09:30pm 20.2 15.7 -0.4 25 9.2 WSW 13 17 7 9 1011.6 1010.2 0.0
27/09:00pm 20.9 15.9 -1.0 23 9.7 WSW 15 19 8 10 1011.1 1009.7 0.0
27/08:30pm 21.4 16.0 -1.2 22 10.0 WSW 17 20 9 11 1010.7 1009.3 0.0
27/08:00pm 22.3 16.3 -1.7 20 10.6 WSW 20 26 11 14 1010.4 1009.0 0.0
27/07:30pm 23.4 16.6 -2.2 18 11.3 SW 24 30 13 16 1010.1 1008.7 0.0
27/07:00pm 24.4 17.6 -2.2 17 11.9 WSW 24 35 13 19 1009.8 1008.4 0.0
27/06:30pm 24.8 18.0 -1.9 17 12.0 WSW 24 33 13 18 1009.7 1008.3 0.0
27/06:00pm 25.5 18.7 -2.1 16 12.4 WSW 24 35 13 19 1009.5 1008.0 0.0
27/05:30pm 25.1 18.4 -0.9 18 11.9 WSW 24 32 13 17 1009.4 1007.9 0.0
27/05:10pm 25.6 19.5 0.3 19 11.9 SSW 22 46 12 25 1009.5 1008.0 0.0
27/05:00pm 25.2 20.0 0.0 19 11.8 SW 17 30 9 16 1009.5 1008.0 0.0
27/04:30pm 25.2 20.5 0.7 20 11.6 WSW 15 24 8 13 1009.7 1008.3 0.0
27/04:00pm 24.9 19.2 0.4 20 11.5 WSW 20 28 11 15 1009.9 1008.5 0.0
27/03:30pm 25.3 19.8 0.8 20 11.6 SW 19 28 10 15 1010.2 1008.8 0.0
27/03:00pm 24.9 19.2 0.4 20 11.5 WSW 20 32 11 17 1010.7 1009.3 0.0
27/02:30pm 24.3 18.8 0.6 21 11.1 WSW 19 30 10 16 1011.1 1009.7 0.0
27/02:00pm 24.0 18.4 1.0 22 10.8 SW 20 33 11 18 1011.4 1010.0 0.0
27/01:30pm 23.5 17.9 1.2 23 10.5 SW 20 30 11 16 1011.9 1010.5 0.0
27/01:00pm 22.7 17.4 1.7 25 9.9 SW 19 28 10 15 1012.3 1010.9 0.0
27/12:30pm 22.6 17.1 1.6 25 9.9 SW 20 30 11 16 1012.7 1011.3 0.0
27/12:00pm 22.1 16.6 1.7 26 9.6 SW 20 30 11 16 1013.0 1011.5 0.0
27/11:30am 21.9 16.6 2.1 27 9.4 SW 19 28 10 15 1013.3 1011.9 0.0
27/11:00am 21.3 16.8 2.1 28 9.1 S 15 22 8 12 1013.4 1012.0 0.0
27/10:30am 20.7 16.6 2.0 29 8.8 S 13 22 7 12 1013.4 1012.0 0.0
27/10:00am 19.7 15.0 1.2 29 8.5 S 15 20 8 11 1013.3 1011.9 0.0
27/09:30am 19.2 15.1 2.1 32 7.9 S 13 17 7 9 1013.2 1011.8 0.0
27/09:00am 18.7 14.7 2.9 35 7.4 SSE 13 17 7 9 1013.2 1011.8 0.0
27/08:30am 16.6 14.3 4.6 45 5.7 SSW 6 7 3 4 1012.8 1011.4 0.0
27/08:00am 14.8 13.6 4.8 51 4.7 CALM 0 0 0 0 1012.6 1011.2 0.0
27/07:30am 12.3 11.2 5.2 62 3.3 CALM 0 0 0 0 1012.4 1011.0 0.0
27/07:00am 11.3 9.9 5.4 67 2.8 WSW 2 7 1 4 1012.2 1010.8 0.0
27/06:30am 11.9 9.6 5.8 66 2.9 WSW 7 9 4 5 1011.9 1010.5 0.0
27/06:00am 11.9 10.8 5.3 64 3.1 CALM 0 0 0 0 1011.7 1010.3 0.0
27/05:30am 12.2 11.0 4.7 60 3.5 CALM 0 0 0 0 1011.5 1010.1 0.0
27/05:00am 13.5 12.4 4.9 56 4.0 CALM 0 4 0 2 1011.2 1009.8 0.0
27/04:30am 14.4 13.2 4.7 52 4.6 CALM 0 6 0 3 1011.1 1009.7 0.0
27/04:00am 14.8 12.6 5.1 52 4.6 WSW 6 9 3 5 1011.0 1009.6 0.0
27/03:30am 15.6 13.1 4.6 48 5.2 WSW 7 9 4 5 1011.1 1009.7 0.0
27/03:00am 16.2 13.9 4.9 47 5.4 SW 6 7 3 4 1010.9 1009.5 0.0
27/02:30am 16.6 14.3 4.9 46 5.6 SW 6 9 3 5 1011.0 1009.6 0.0
27/02:00am 17.1 14.9 5.1 45 5.8 SSW 6 9 3 5 1011.3 1009.9 0.0
27/01:30am 18.2 15.0 5.1 42 6.4 S 11 17 6 9 1011.4 1010.0 0.0
27/01:00am 18.9 14.6 5.4 41 6.7 S 17 19 9 10 1011.3 1009.9 0.0
27/12:30am 19.5 15.0 5.9 41 6.8 S 19 28 10 15 1011.2 1009.8 0.0
27/12:00am 19.8 16.1 6.5 42 6.8 S 15 24 8 13 1011.0 1009.6 0.0
 
Date/Time
EDT
Temp
°C
App
Temp
°C
Dew
Point
°C
Rel
Hum
%
Delta-T
°C
Wind Press
QNH
hPa
Press
MSL
hPa
Rain since
9am
mm
Dir  Spd
km/h
Gust
km/h
Spd
kts
Gust
kts
26/11:30pm 20.2 16.3 6.9 42 6.8 SSW 17 24 9 13 1010.8 1009.4 0.0
26/11:00pm 21.0 16.8 7.3 41 7.1 S 19 24 10 13 1010.7 1009.3 0.0
26/10:30pm 21.7 17.3 7.5 40 7.4 S 20 28 11 15 1010.6 1009.2 0.0
26/10:00pm 22.4 19.5 8.1 40 7.6 S 13 17 7 9 1010.3 1008.9 0.0
26/09:30pm 22.9 20.0 8.2 39 7.9 SW 13 19 7 10 1010.0 1008.6 0.0
26/09:00pm 23.2 20.0 8.5 39 7.9 SW 15 20 8 11 1009.6 1008.1 0.0
26/08:30pm 23.8 20.2 8.2 37 8.4 SW 17 20 9 11 1009.3 1007.8 0.0
26/08:00pm 24.4 20.2 8.4 36 8.7 SW 20 28 11 15 1008.6 1007.2 0.0
26/07:30pm 25.4 19.6 8.0 33 9.4 SW 28 37 15 20 1008.3 1006.9 0.0
26/07:00pm 26.0 20.0 7.1 30 10.1 SSW 28 35 15 19 1008.1 1006.7 0.0
26/06:30pm 26.8 19.8 6.2 27 10.9 SW 32 41 17 22 1007.7 1006.3 0.0
26/06:00pm 27.5 19.5 3.9 22 12.0 WSW 35 48 19 26 1007.3 1005.9 0.0
26/05:48pm 28.0 20.1 4.3 22 12.2 SW 35 54 19 29 1007.2 1005.8 0.0
26/05:30pm 27.9 19.5 3.6 21 12.3 SW 37 46 20 25 1007.1 1005.7 0.0
26/05:00pm 28.6 19.5 -0.5 15 13.8 SW 37 48 20 26 1007.1 1005.7 0.0
26/04:30pm 28.4 19.3 -0.7 15 13.7 WSW 37 50 20 27 1007.4 1006.0 0.0
26/04:01pm 29.2 20.6 2.5 18 13.4 WSW 37 56 20 30 1007.5 1006.1 0.0
26/04:00pm 28.6 19.5 2.0 18 13.2 WSW 39 56 21 30 1007.5 1006.1 0.0
26/03:44pm 29.0 21.4 5.8 23 12.3 SW 35 54 19 29 1007.7 1006.3 0.0

Other formats

Comma delimited format used in spreadsheet applications
http://www.bom.gov.au/fwo/IDN60801/IDN60801.95709.axf

JavaScript Object Notation format (JSON) in row-major order
http://www.bom.gov.au/fwo/IDN60801/IDN60801.95709.json

Data quality

Most of these data are generated automatically and are frequently updated. Quality checks on data are not normally performed. It is possible for incorrect values to appear. Refer to information at About Latest Weather Observations and please check the disclaimer before using these data.